createdAt,value
2018-01-12T00:00:39.714Z,1.95
2018-01-12T00:01:39.609Z,1.95
2018-01-12T00:02:39.727Z,1.95
2018-01-12T00:03:39.616Z,1.93
2018-01-12T00:04:39.633Z,1.93
2018-01-12T00:05:39.635Z,1.93
2018-01-12T00:06:39.640Z,1.92
2018-01-12T00:07:39.660Z,1.91
2018-01-12T00:08:39.649Z,1.91
2018-01-12T00:09:39.672Z,1.91
2018-01-12T00:10:39.704Z,1.89
2018-01-12T00:11:39.683Z,1.87
2018-01-12T00:12:39.661Z,1.85
2018-01-12T00:13:39.699Z,1.84
2018-01-12T00:14:39.675Z,1.85
2018-01-12T00:15:39.713Z,1.82
2018-01-12T00:16:39.678Z,1.82
2018-01-12T00:17:39.725Z,1.80
2018-01-12T00:18:39.686Z,1.82
2018-01-12T00:19:39.741Z,1.82
2018-01-12T00:20:39.691Z,1.82
2018-01-12T00:21:39.704Z,1.82
2018-01-12T00:22:39.761Z,1.82
2018-01-12T00:23:39.709Z,1.84
2018-01-12T00:24:39.773Z,1.84
2018-01-12T00:25:39.715Z,1.87
2018-01-12T00:26:39.785Z,1.89
2018-01-12T00:27:39.725Z,1.89
2018-01-12T00:28:39.804Z,1.89
2018-01-12T00:29:39.734Z,1.89
2018-01-12T00:30:39.734Z,1.91
2018-01-12T00:31:39.743Z,1.89
2018-01-12T00:32:39.827Z,1.92
2018-01-12T00:33:39.748Z,1.91
2018-01-12T00:34:39.815Z,1.92
2018-01-12T00:35:39.764Z,1.92
2018-01-12T00:36:39.809Z,1.92
2018-01-12T00:37:39.772Z,1.93
2018-01-12T00:38:39.822Z,1.95
2018-01-12T00:39:39.779Z,1.95
2018-01-12T00:40:39.839Z,1.97
2018-01-12T00:41:39.787Z,1.99
2018-01-12T00:42:39.883Z,1.99
2018-01-12T00:43:39.794Z,2.00
2018-01-12T00:44:39.867Z,2.01
2018-01-12T00:45:39.803Z,2.04
2018-01-12T00:46:39.878Z,2.06
2018-01-12T00:47:39.810Z,2.10
2018-01-12T00:48:39.890Z,2.11
2018-01-12T00:49:39.821Z,2.14
2018-01-12T00:50:39.905Z,2.17
2018-01-12T00:51:39.829Z,2.18
2018-01-12T00:52:39.918Z,2.19
2018-01-12T00:53:39.846Z,2.22
2018-01-12T00:54:39.932Z,2.24
2018-01-12T00:55:39.858Z,2.25
2018-01-12T00:56:39.946Z,2.28
2018-01-12T00:57:39.857Z,2.29
2018-01-12T00:58:39.960Z,2.32
2018-01-12T00:59:40.163Z,2.33
2018-01-12T01:00:39.868Z,2.36
2018-01-12T01:01:39.979Z,2.36
2018-01-12T01:02:39.881Z,2.39
2018-01-12T01:03:39.992Z,2.39
2018-01-12T01:04:39.882Z,2.42
2018-01-12T01:05:39.904Z,2.43
2018-01-12T01:06:39.887Z,2.43
2018-01-12T01:07:39.915Z,2.45
2018-01-12T01:08:39.905Z,2.47
2018-01-12T01:09:39.913Z,2.48
2018-01-12T01:10:39.936Z,2.50
2018-01-12T01:11:39.910Z,2.51
2018-01-12T01:12:39.960Z,2.51
2018-01-12T01:13:39.921Z,2.51
2018-01-12T01:14:39.927Z,2.53
2018-01-12T01:15:39.931Z,2.54
2018-01-12T01:16:39.977Z,2.54
2018-01-12T01:17:39.940Z,2.55
2018-01-12T01:18:39.993Z,2.57
2018-01-12T01:19:39.948Z,2.57
2018-01-12T01:20:40.011Z,2.58
2018-01-12T01:21:39.954Z,2.58
2018-01-12T01:22:39.960Z,2.60
2018-01-12T01:23:40.025Z,2.61
2018-01-12T01:24:39.972Z,2.63
2018-01-12T01:25:40.038Z,2.61
2018-01-12T01:26:39.978Z,2.61
2018-01-12T01:27:40.054Z,2.63
2018-01-12T01:28:39.990Z,2.65
2018-01-12T01:29:39.990Z,2.63
2018-01-12T01:30:40.072Z,2.66
2018-01-12T01:31:40.000Z,2.66
2018-01-12T01:32:40.086Z,2.65
2018-01-12T01:33:40.007Z,2.68
2018-01-12T01:34:40.116Z,2.69
2018-01-12T01:35:40.017Z,2.69
2018-01-12T01:36:40.116Z,2.69
2018-01-12T01:37:40.030Z,2.71
2018-01-12T01:38:40.134Z,2.69
2018-01-12T01:39:40.033Z,2.71
2018-01-12T01:40:41.061Z,2.72
2018-01-12T01:41:40.047Z,2.72
2018-01-12T01:42:40.150Z,2.75
2018-01-12T01:43:40.044Z,2.75
2018-01-12T01:44:40.059Z,2.73
2018-01-12T01:45:40.070Z,2.75
2018-01-12T01:46:40.071Z,2.76
2018-01-12T01:47:40.105Z,2.76
2018-01-12T01:48:40.071Z,2.76
2018-01-12T01:49:40.114Z,2.76
2018-01-12T01:50:40.077Z,2.78
2018-01-12T01:51:40.116Z,2.78
2018-01-12T01:52:40.083Z,2.79
2018-01-12T01:53:40.146Z,2.79
2018-01-12T01:54:40.103Z,2.81
2018-01-12T01:55:40.138Z,2.82
2018-01-12T01:56:40.100Z,2.81
2018-01-12T01:57:40.161Z,2.82
2018-01-12T01:58:40.118Z,2.84
2018-01-12T01:59:40.117Z,2.82
2018-01-12T02:00:40.172Z,2.82
2018-01-12T02:01:40.121Z,2.84
2018-01-12T02:02:40.188Z,2.86
2018-01-12T02:03:40.133Z,2.86
2018-01-12T02:04:40.202Z,2.84
2018-01-12T02:05:40.142Z,2.86
2018-01-12T02:06:40.214Z,2.86
2018-01-12T02:07:40.146Z,2.86
2018-01-12T02:08:40.158Z,2.86
2018-01-12T02:09:40.158Z,2.87
2018-01-12T02:10:40.245Z,2.89
2018-01-12T02:11:40.171Z,2.89
2018-01-12T02:12:40.262Z,2.90
2018-01-12T02:13:40.176Z,2.90
2018-01-12T02:14:40.174Z,2.90
2018-01-12T02:15:40.179Z,2.90
2018-01-12T02:16:40.287Z,2.91
2018-01-12T02:17:40.188Z,2.91
2018-01-12T02:18:40.296Z,2.91
2018-01-12T02:19:40.203Z,2.93
2018-01-12T02:20:40.309Z,2.93
2018-01-12T02:21:40.207Z,2.93
2018-01-12T02:22:40.221Z,2.93
2018-01-12T02:23:40.216Z,2.94
2018-01-12T02:24:40.235Z,2.94
2018-01-12T02:25:40.222Z,2.93
2018-01-12T02:26:40.247Z,2.94
2018-01-12T02:27:40.232Z,2.93
2018-01-12T02:28:40.233Z,2.96
2018-01-12T02:29:40.263Z,2.94
2018-01-12T02:30:40.278Z,2.96
2018-01-12T02:31:40.251Z,2.94
2018-01-12T02:32:40.288Z,2.96
2018-01-12T02:33:40.259Z,2.96
2018-01-12T02:34:40.267Z,2.96
2018-01-12T02:35:40.260Z,2.97
2018-01-12T02:36:40.315Z,2.96
2018-01-12T02:37:40.272Z,2.97
2018-01-12T02:38:40.330Z,2.99
2018-01-12T02:39:40.284Z,2.97
2018-01-12T02:40:40.348Z,2.97
2018-01-12T02:41:40.286Z,2.99
2018-01-12T02:42:40.358Z,2.99
2018-01-12T02:43:40.294Z,2.99
2018-01-12T02:44:40.371Z,2.99
2018-01-12T02:45:40.302Z,3.00
2018-01-12T02:46:40.383Z,3.00
2018-01-12T02:47:40.310Z,3.00
2018-01-12T02:48:40.399Z,3.00
2018-01-12T02:49:40.315Z,3.02
2018-01-12T02:50:40.417Z,3.02
2018-01-12T02:51:40.351Z,3.00
2018-01-12T02:52:40.424Z,3.02
2018-01-12T02:53:40.340Z,3.00
2018-01-12T02:54:40.437Z,3.00
2018-01-12T02:55:40.355Z,3.02
2018-01-12T02:56:40.451Z,3.00
2018-01-12T02:57:40.351Z,3.02
2018-01-12T02:58:40.354Z,3.02
2018-01-12T02:59:40.473Z,3.00
2018-01-12T03:00:40.372Z,3.04
2018-01-12T03:01:40.390Z,3.04
2018-01-12T03:02:40.370Z,3.02
2018-01-12T03:03:40.404Z,3.02
2018-01-12T03:04:40.380Z,3.02
2018-01-12T03:05:40.416Z,3.02
2018-01-12T03:06:40.386Z,3.04
2018-01-12T03:07:40.430Z,3.04
2018-01-12T03:08:40.401Z,3.04
2018-01-12T03:09:40.442Z,3.02
2018-01-12T03:10:40.400Z,3.05
2018-01-12T03:11:40.455Z,3.02
2018-01-12T03:12:40.411Z,3.04
2018-01-12T03:13:40.415Z,3.04
2018-01-12T03:14:40.474Z,3.04
2018-01-12T03:15:40.420Z,3.04
2018-01-12T03:16:40.491Z,3.04
2018-01-12T03:17:40.434Z,3.04
2018-01-12T03:18:40.502Z,3.04
2018-01-12T03:19:40.436Z,3.02
2018-01-12T03:20:40.513Z,3.04
2018-01-12T03:21:40.448Z,3.02
2018-01-12T03:22:40.547Z,3.02
2018-01-12T03:23:40.454Z,3.04
2018-01-12T03:24:40.540Z,3.04
2018-01-12T03:25:40.464Z,3.04
2018-01-12T03:26:40.466Z,3.04
2018-01-12T03:27:40.472Z,3.04
2018-01-12T03:28:40.568Z,3.04
2018-01-12T03:29:40.478Z,3.04
2018-01-12T03:30:40.584Z,3.02
2018-01-12T03:31:40.487Z,3.04
2018-01-12T03:32:40.604Z,3.05
2018-01-12T03:33:40.494Z,3.02
2018-01-12T03:34:40.614Z,3.04
2018-01-12T03:35:40.498Z,3.04
2018-01-12T03:36:40.513Z,3.05
2018-01-12T03:37:40.508Z,3.04
2018-01-12T03:38:40.538Z,3.05
2018-01-12T03:39:40.516Z,3.05
2018-01-12T03:40:40.549Z,3.05
2018-01-12T03:41:40.528Z,3.05
2018-01-12T03:42:40.529Z,3.07
2018-01-12T03:43:40.569Z,3.07
2018-01-12T03:44:40.551Z,3.07
2018-01-12T03:45:40.581Z,3.07
2018-01-12T03:46:40.546Z,3.08
2018-01-12T03:47:41.620Z,3.08
2018-01-12T03:48:40.556Z,3.07
2018-01-12T03:49:40.610Z,3.08
2018-01-12T03:50:40.562Z,3.08
2018-01-12T03:51:40.624Z,3.08
2018-01-12T03:52:40.570Z,3.09
2018-01-12T03:53:40.644Z,3.08
2018-01-12T03:54:40.581Z,3.09
2018-01-12T03:55:40.653Z,3.08
2018-01-12T03:56:40.587Z,3.08
2018-01-12T03:57:40.668Z,3.09
2018-01-12T03:58:41.381Z,3.11
2018-01-12T03:59:40.690Z,3.09
2018-01-12T04:00:40.595Z,3.09
2018-01-12T04:01:40.692Z,3.09
2018-01-12T04:02:40.608Z,3.09
2018-01-12T04:03:40.610Z,3.11
2018-01-12T04:04:40.615Z,3.11
2018-01-12T04:05:40.720Z,3.11
2018-01-12T04:06:40.622Z,3.12
2018-01-12T04:07:40.729Z,3.11
2018-01-12T04:08:40.685Z,3.12
2018-01-12T04:09:40.753Z,3.12
2018-01-12T04:10:40.640Z,3.12
2018-01-12T04:11:40.641Z,3.12
2018-01-12T04:12:40.664Z,3.12
2018-01-12T04:13:40.651Z,3.12
2018-01-12T04:14:40.656Z,3.11
2018-01-12T04:15:40.663Z,3.12
2018-01-12T04:16:40.695Z,3.11
2018-01-12T04:17:40.666Z,3.11
2018-01-12T04:18:40.705Z,3.11
2018-01-12T04:19:40.674Z,3.12
2018-01-12T04:20:40.719Z,3.11
2018-01-12T04:21:40.684Z,3.11
2018-01-12T04:22:40.766Z,3.11
2018-01-12T04:23:40.691Z,3.09
2018-01-12T04:24:40.748Z,3.09
2018-01-12T04:25:40.707Z,3.09
2018-01-12T04:26:40.713Z,3.09
2018-01-12T04:27:40.768Z,3.08
2018-01-12T04:28:40.710Z,3.09
2018-01-12T04:29:40.780Z,3.08
2018-01-12T04:30:40.723Z,3.09
2018-01-12T04:31:40.717Z,3.08
2018-01-12T04:32:40.804Z,3.07
2018-01-12T04:33:40.739Z,3.08
2018-01-12T04:34:40.813Z,3.07
2018-01-12T04:35:40.741Z,3.08
2018-01-12T04:36:40.744Z,3.07
2018-01-12T04:37:40.838Z,3.08
2018-01-12T04:38:40.748Z,3.07
2018-01-12T04:39:40.849Z,3.07
2018-01-12T04:40:40.756Z,3.07
2018-01-12T04:41:40.758Z,3.05
2018-01-12T04:42:40.867Z,3.07
2018-01-12T04:43:40.770Z,3.07
2018-01-12T04:44:40.880Z,3.05
2018-01-12T04:45:40.772Z,3.05
2018-01-12T04:46:40.789Z,3.05
2018-01-12T04:47:40.782Z,3.05
2018-01-12T04:48:40.804Z,3.05
2018-01-12T04:49:40.789Z,3.05
2018-01-12T04:50:40.817Z,3.04
2018-01-12T04:51:40.801Z,3.04
2018-01-12T04:52:40.837Z,3.04
2018-01-12T04:53:40.805Z,3.04
2018-01-12T04:54:40.850Z,3.04
2018-01-12T04:55:40.814Z,3.02
2018-01-12T04:56:40.862Z,3.04
2018-01-12T04:57:40.820Z,3.00
2018-01-12T04:58:40.879Z,3.00
2018-01-12T04:59:40.830Z,3.00
2018-01-12T05:00:40.889Z,3.00
2018-01-12T05:01:40.837Z,2.99
2018-01-12T05:02:40.912Z,2.99
2018-01-12T05:03:40.845Z,2.99
2018-01-12T05:04:40.921Z,2.99
2018-01-12T05:05:40.853Z,2.99
2018-01-12T05:06:40.936Z,3.00
2018-01-12T05:07:40.869Z,2.99
2018-01-12T05:08:40.948Z,3.00
2018-01-12T05:09:40.867Z,3.02
2018-01-12T05:10:40.879Z,3.04
2018-01-12T05:11:40.969Z,3.04
2018-01-12T05:12:40.897Z,3.04
2018-01-12T05:13:40.981Z,3.05
2018-01-12T05:14:40.886Z,3.07
2018-01-12T05:15:40.996Z,3.08
2018-01-12T05:16:40.899Z,3.07
2018-01-12T05:17:41.010Z,3.09
2018-01-12T05:18:40.903Z,3.09
2018-01-12T05:19:41.022Z,3.11
2018-01-12T05:20:40.914Z,3.12
2018-01-12T05:21:40.935Z,3.12
2018-01-12T05:22:40.912Z,3.12
2018-01-12T05:23:40.944Z,3.11
2018-01-12T05:24:40.921Z,3.14
2018-01-12T05:25:40.926Z,3.15
2018-01-12T05:26:40.968Z,3.15
2018-01-12T05:27:40.936Z,3.15
2018-01-12T05:28:40.981Z,3.15
2018-01-12T05:29:40.944Z,3.17
2018-01-12T05:30:40.997Z,3.18
2018-01-12T05:31:40.952Z,3.18
2018-01-12T05:32:41.008Z,3.18
2018-01-12T05:33:40.969Z,3.18
2018-01-12T05:34:41.017Z,3.20
2018-01-12T05:35:40.961Z,3.20
2018-01-12T05:36:41.040Z,3.18
2018-01-12T05:37:40.969Z,3.22
2018-01-12T05:38:41.044Z,3.20
2018-01-12T05:39:40.982Z,3.20
2018-01-12T05:40:40.986Z,3.22
2018-01-12T05:41:41.070Z,3.23
2018-01-12T05:42:40.993Z,3.23
2018-01-12T05:43:41.078Z,3.23
2018-01-12T05:44:41.001Z,3.23
2018-01-12T05:45:41.108Z,3.23
2018-01-12T05:46:41.018Z,3.23
2018-01-12T05:47:41.110Z,3.25
2018-01-12T05:48:41.023Z,3.25
2018-01-12T05:49:41.122Z,3.26
2018-01-12T05:50:41.026Z,3.26
2018-01-12T05:51:41.136Z,3.26
2018-01-12T05:52:41.031Z,3.26
2018-01-12T05:53:41.059Z,3.26
2018-01-12T05:54:41.038Z,3.27
2018-01-12T05:55:41.043Z,3.27
2018-01-12T05:56:41.074Z,3.27
2018-01-12T05:57:41.073Z,3.29
2018-01-12T05:58:41.081Z,3.27
2018-01-12T05:59:41.061Z,3.27
2018-01-12T06:00:41.094Z,3.27
2018-01-12T06:01:41.063Z,3.27
2018-01-12T06:02:41.107Z,3.29
2018-01-12T06:03:41.079Z,3.29
2018-01-12T06:04:41.121Z,3.27
2018-01-12T06:05:41.078Z,3.29
2018-01-12T06:06:41.134Z,3.30
2018-01-12T06:07:41.090Z,3.29
2018-01-12T06:08:41.149Z,3.29
2018-01-12T06:09:41.091Z,3.29
2018-01-12T06:10:41.162Z,3.29
2018-01-12T06:11:41.103Z,3.29
2018-01-12T06:12:41.177Z,3.29
2018-01-12T06:13:41.105Z,3.29
2018-01-12T06:14:41.188Z,3.29
2018-01-12T06:15:41.131Z,3.29
2018-01-12T06:16:41.201Z,3.27
2018-01-12T06:17:41.124Z,3.27
2018-01-12T06:18:41.219Z,3.26
2018-01-12T06:19:41.131Z,3.26
2018-01-12T06:20:41.245Z,3.25
2018-01-12T06:21:41.147Z,3.25
2018-01-12T06:22:41.244Z,3.23
2018-01-12T06:23:41.149Z,3.22
2018-01-12T06:24:41.152Z,3.20
2018-01-12T06:25:41.266Z,3.18
2018-01-12T06:26:41.160Z,3.18
2018-01-12T06:27:41.175Z,3.18
2018-01-12T06:28:41.165Z,3.18
2018-01-12T06:29:41.185Z,3.17
2018-01-12T06:30:41.903Z,3.18
2018-01-12T06:31:41.204Z,3.17
2018-01-12T06:32:41.180Z,3.17
2018-01-12T06:33:41.243Z,3.18
2018-01-12T06:34:41.182Z,3.18
2018-01-12T06:35:41.230Z,3.17
2018-01-12T06:36:41.195Z,3.18
2018-01-12T06:37:41.243Z,3.17
2018-01-12T06:38:41.200Z,3.18
2018-01-12T06:39:41.207Z,3.18
2018-01-12T06:40:41.261Z,3.18
2018-01-12T06:41:41.221Z,3.18
2018-01-12T06:42:41.276Z,3.20
2018-01-12T06:43:41.237Z,3.18
2018-01-12T06:44:41.293Z,3.20
2018-01-12T06:45:41.228Z,3.20
2018-01-12T06:46:41.239Z,3.22
2018-01-12T06:47:41.311Z,3.22
2018-01-12T06:48:41.249Z,3.23
2018-01-12T06:49:41.331Z,3.23
2018-01-12T06:50:41.248Z,3.25
2018-01-12T06:51:41.338Z,3.23
2018-01-12T06:52:41.252Z,3.23
2018-01-12T06:53:41.352Z,3.25
2018-01-12T06:54:41.276Z,3.25
2018-01-12T06:55:41.366Z,3.25
2018-01-12T06:56:41.267Z,3.25
2018-01-12T06:57:41.381Z,3.25
2018-01-12T06:58:41.279Z,3.25
2018-01-12T06:59:41.404Z,3.26
2018-01-12T07:00:41.282Z,3.26
2018-01-12T07:01:41.304Z,3.25
2018-01-12T07:02:41.290Z,3.26
2018-01-12T07:03:41.317Z,3.26
2018-01-12T07:04:41.300Z,3.26
2018-01-12T07:05:41.331Z,3.25
2018-01-12T07:06:41.304Z,3.26
2018-01-12T07:07:41.345Z,3.27
2018-01-12T07:08:41.312Z,3.27
2018-01-12T07:09:41.356Z,3.29
2018-01-12T07:10:41.321Z,3.27
2018-01-12T07:11:41.328Z,3.27
2018-01-12T07:12:41.324Z,3.29
2018-01-12T07:13:41.387Z,3.29
2018-01-12T07:14:41.338Z,3.29
2018-01-12T07:15:41.399Z,3.29
2018-01-12T07:16:41.342Z,3.26
2018-01-12T07:17:41.346Z,3.29
2018-01-12T07:18:41.346Z,3.27
2018-01-12T07:19:41.439Z,3.29
2018-01-12T07:20:41.355Z,3.27
2018-01-12T07:21:41.439Z,3.27
2018-01-12T07:22:41.360Z,3.27
2018-01-12T07:23:41.369Z,3.27
2018-01-12T07:24:41.373Z,3.27
2018-01-12T07:25:41.378Z,3.27
2018-01-12T07:26:41.376Z,3.29
2018-01-12T07:27:41.381Z,3.26
2018-01-12T07:28:41.389Z,3.27
2018-01-12T07:29:41.387Z,3.27
2018-01-12T07:30:41.401Z,3.27
2018-01-12T07:31:41.426Z,3.27
2018-01-12T07:32:41.398Z,3.27
2018-01-12T07:33:41.444Z,3.27
2018-01-12T07:34:41.409Z,3.29
2018-01-12T07:35:41.432Z,3.29
2018-01-12T07:36:41.418Z,3.27
2018-01-12T07:37:41.447Z,3.27
2018-01-12T07:38:41.419Z,3.29
2018-01-12T07:39:47.500Z,3.29
2018-01-12T07:40:41.441Z,3.29
2018-01-12T07:41:41.472Z,3.29
2018-01-12T07:42:41.439Z,3.29
2018-01-12T07:43:41.519Z,3.30
2018-01-12T07:44:41.483Z,3.32
2018-01-12T07:45:42.525Z,3.30
2018-01-12T07:46:41.461Z,3.30
2018-01-12T07:47:41.515Z,3.32
2018-01-12T07:48:41.462Z,3.32
2018-01-12T07:49:41.524Z,3.30
2018-01-12T07:50:41.476Z,3.32
2018-01-12T07:51:41.549Z,3.33
2018-01-12T07:52:41.487Z,3.33
2018-01-12T07:53:41.555Z,3.35
2018-01-12T07:54:41.505Z,3.33
2018-01-12T07:55:41.575Z,3.33
2018-01-12T07:56:41.488Z,3.35
2018-01-12T07:57:42.505Z,3.35
2018-01-12T07:58:41.492Z,3.36
2018-01-12T07:59:41.607Z,3.36
2018-01-12T08:00:41.503Z,3.37
2018-01-12T08:01:41.615Z,3.41
2018-01-12T08:02:41.515Z,3.37
2018-01-12T08:03:41.628Z,3.41
2018-01-12T08:04:41.518Z,3.44
2018-01-12T08:05:41.539Z,3.44
2018-01-12T08:06:41.521Z,3.45
2018-01-12T08:07:41.556Z,3.45
2018-01-12T08:08:41.532Z,3.46
2018-01-12T08:09:41.564Z,3.48
2018-01-12T08:10:41.538Z,3.48
2018-01-12T08:11:42.610Z,3.49
2018-01-12T08:12:41.546Z,3.49
2018-01-12T08:13:41.591Z,3.52
2018-01-12T08:14:41.551Z,3.52
2018-01-12T08:15:41.611Z,3.52
2018-01-12T08:16:41.563Z,3.54
2018-01-12T08:17:41.616Z,3.52
2018-01-12T08:18:41.564Z,3.52
2018-01-12T08:19:41.626Z,3.54
2018-01-12T08:20:41.575Z,3.52
2018-01-12T08:21:41.645Z,3.54
2018-01-12T08:22:41.582Z,3.52
2018-01-12T08:23:42.682Z,3.52
2018-01-12T08:24:41.626Z,3.52
2018-01-12T08:25:42.695Z,3.51
2018-01-12T08:26:41.609Z,3.51
2018-01-12T08:27:41.692Z,3.51
2018-01-12T08:28:41.609Z,3.51
2018-01-12T08:29:42.721Z,3.52
2018-01-12T08:30:41.610Z,3.52
2018-01-12T08:31:42.634Z,3.52
2018-01-12T08:32:41.645Z,3.52
2018-01-12T08:33:41.727Z,3.54
2018-01-12T08:34:41.635Z,3.54
2018-01-12T08:35:41.733Z,3.54
2018-01-12T08:36:41.636Z,3.55
2018-01-12T08:37:41.645Z,3.55
2018-01-12T08:38:41.639Z,3.55
2018-01-12T08:39:41.678Z,3.55
2018-01-12T08:40:41.649Z,3.56
2018-01-12T08:41:41.681Z,3.56
2018-01-12T08:42:41.649Z,3.59
2018-01-12T08:43:42.715Z,3.62
2018-01-12T08:44:41.663Z,3.62
2018-01-12T08:45:41.709Z,3.63
2018-01-12T08:46:41.681Z,3.63
2018-01-12T08:47:41.715Z,3.63
2018-01-12T08:48:41.684Z,3.66
2018-01-12T08:49:41.686Z,3.66
2018-01-12T08:50:41.687Z,3.67
2018-01-12T08:51:41.704Z,3.69
2018-01-12T08:52:41.694Z,3.69
2018-01-12T08:53:42.739Z,3.69
2018-01-12T08:54:41.701Z,3.70
2018-01-12T08:55:41.746Z,3.70
2018-01-12T08:56:41.850Z,3.72
2018-01-12T08:57:42.768Z,3.70
2018-01-12T08:58:41.706Z,3.70
2018-01-12T08:59:41.760Z,3.72
2018-01-12T09:00:41.716Z,3.70
2018-01-12T09:01:41.771Z,3.70
2018-01-12T09:02:41.728Z,3.70
2018-01-12T09:03:41.782Z,3.70
2018-01-12T09:04:41.731Z,3.69
2018-01-12T09:05:41.793Z,3.72
2018-01-12T09:06:41.737Z,3.72
2018-01-12T09:07:41.810Z,3.70
2018-01-12T09:08:41.744Z,3.73
2018-01-12T09:09:41.822Z,3.72
2018-01-12T09:10:41.757Z,3.72
2018-01-12T09:11:41.837Z,3.72
2018-01-12T09:12:41.759Z,3.73
2018-01-12T09:13:41.850Z,3.73
2018-01-12T09:14:41.766Z,3.73
2018-01-12T09:15:42.886Z,3.74
2018-01-12T09:16:41.773Z,3.76
2018-01-12T09:17:41.882Z,3.74
2018-01-12T09:18:41.787Z,3.76
2018-01-12T09:19:41.895Z,3.78
2018-01-12T09:20:41.799Z,3.78
2018-01-12T09:21:41.906Z,3.81
2018-01-12T09:22:41.797Z,3.81
2018-01-12T09:23:41.819Z,3.81
2018-01-12T09:24:41.823Z,3.82
2018-01-12T09:25:41.830Z,3.81
2018-01-12T09:26:41.810Z,3.82
2018-01-12T09:27:41.843Z,3.84
2018-01-12T09:28:41.815Z,3.84
2018-01-12T09:29:41.857Z,3.84
2018-01-12T09:30:41.827Z,3.84
2018-01-12T09:31:41.870Z,3.84
2018-01-12T09:32:41.850Z,3.81
2018-01-12T09:33:41.885Z,3.82
2018-01-12T09:34:41.840Z,3.82
2018-01-12T09:35:41.899Z,3.82
2018-01-12T09:36:41.851Z,3.84
2018-01-12T09:37:41.908Z,3.84
2018-01-12T09:38:41.856Z,3.85
2018-01-12T09:39:41.922Z,3.85
2018-01-12T09:40:41.859Z,3.85
2018-01-12T09:41:41.934Z,3.87
2018-01-12T09:42:41.866Z,3.87
2018-01-12T09:43:41.949Z,3.87
2018-01-12T09:44:41.919Z,3.87
2018-01-12T09:45:41.964Z,3.85
2018-01-12T09:46:41.882Z,3.88
2018-01-12T09:47:41.979Z,3.90
2018-01-12T09:48:41.889Z,3.90
2018-01-12T09:49:41.994Z,3.91
2018-01-12T09:50:41.893Z,3.92
2018-01-12T09:51:42.007Z,3.91
2018-01-12T09:52:41.902Z,3.92
2018-01-12T09:53:42.020Z,3.94
2018-01-12T09:54:41.907Z,3.94
2018-01-12T09:55:42.954Z,3.94
2018-01-12T09:56:41.914Z,3.96
2018-01-12T09:57:41.943Z,3.96
2018-01-12T09:58:41.921Z,3.98
2018-01-12T09:59:41.956Z,3.96
2018-01-12T10:00:41.931Z,3.98
2018-01-12T10:01:41.973Z,3.98
2018-01-12T10:02:41.937Z,3.98
2018-01-12T10:03:44.030Z,3.98
2018-01-12T10:04:41.958Z,3.98
2018-01-12T10:05:42.026Z,3.98
2018-01-12T10:06:41.949Z,3.98
2018-01-12T10:07:43.040Z,3.99
2018-01-12T10:08:41.959Z,4.00
2018-01-12T10:09:42.031Z,4.00
2018-01-12T10:10:41.996Z,4.00
2018-01-12T10:11:46.955Z,4.02
2018-01-12T10:12:41.996Z,4.03
2018-01-12T10:13:42.058Z,4.02
2018-01-12T10:14:41.989Z,4.03
2018-01-12T10:15:42.087Z,4.05
2018-01-12T10:16:41.988Z,4.03
2018-01-12T10:17:46.998Z,4.06
2018-01-12T10:18:42.003Z,4.06
2018-01-12T10:19:43.012Z,4.08
2018-01-12T10:20:42.003Z,4.08
2018-01-12T10:21:42.108Z,4.10
2018-01-12T10:22:42.008Z,4.10
2018-01-12T10:23:42.120Z,4.10
2018-01-12T10:24:42.013Z,4.12
2018-01-12T10:25:48.997Z,4.12
2018-01-12T10:26:42.018Z,4.12
2018-01-12T10:27:44.095Z,4.10
2018-01-12T10:28:42.030Z,4.12
2018-01-12T10:29:42.057Z,4.13
2018-01-12T10:30:42.036Z,4.13
2018-01-12T10:31:42.078Z,4.13
2018-01-12T10:32:42.048Z,4.13
2018-01-12T10:33:44.135Z,4.13
2018-01-12T10:34:42.047Z,4.17
2018-01-12T10:35:42.101Z,4.17
2018-01-12T10:36:42.062Z,4.18
2018-01-12T10:37:42.114Z,4.20
2018-01-12T10:38:42.075Z,4.21
2018-01-12T10:39:42.125Z,4.21
2018-01-12T10:40:42.073Z,4.23
2018-01-12T10:41:42.139Z,4.23
2018-01-12T10:42:42.079Z,4.23
2018-01-12T10:43:43.186Z,4.23
2018-01-12T10:44:42.085Z,4.24
2018-01-12T10:45:43.190Z,4.24
2018-01-12T10:46:42.090Z,4.24
2018-01-12T10:47:42.179Z,4.27
2018-01-12T10:48:42.151Z,4.27
2018-01-12T10:49:43.222Z,4.27
2018-01-12T10:50:42.108Z,4.31
2018-01-12T10:51:42.210Z,4.31
2018-01-12T10:52:42.121Z,4.35
2018-01-12T10:53:42.218Z,4.35
2018-01-12T10:54:42.117Z,4.36
2018-01-12T10:55:42.236Z,4.36
2018-01-12T10:56:42.134Z,4.36
2018-01-12T10:57:42.146Z,4.35
2018-01-12T10:58:42.136Z,4.35
2018-01-12T10:59:42.164Z,4.34
2018-01-12T11:00:42.143Z,4.31
2018-01-12T11:01:42.171Z,4.30
2018-01-12T11:02:42.145Z,4.30
2018-01-12T11:03:42.188Z,4.30
2018-01-12T11:04:42.156Z,4.28
2018-01-12T11:05:43.225Z,4.27
2018-01-12T11:06:42.157Z,4.27
2018-01-12T11:07:42.210Z,4.27
2018-01-12T11:08:42.169Z,4.27
2018-01-12T11:09:42.231Z,4.27
2018-01-12T11:10:42.182Z,4.31
2018-01-12T11:11:42.239Z,4.30
2018-01-12T11:12:42.181Z,4.31
2018-01-12T11:13:42.256Z,4.31
2018-01-12T11:14:42.184Z,4.31
2018-01-12T11:15:42.268Z,4.35
2018-01-12T11:16:42.195Z,4.35
2018-01-12T11:17:42.280Z,4.36
2018-01-12T11:18:42.203Z,4.38
2018-01-12T11:19:42.293Z,4.39
2018-01-12T11:20:42.217Z,4.39
2018-01-12T11:21:43.238Z,4.41
2018-01-12T11:22:42.215Z,4.41
2018-01-12T11:23:42.320Z,4.41
2018-01-12T11:24:42.224Z,4.41
2018-01-12T11:25:42.335Z,4.42
2018-01-12T11:26:42.230Z,4.42
2018-01-12T11:27:42.250Z,4.42
2018-01-12T11:28:42.250Z,4.41
2018-01-12T11:29:42.264Z,4.42
2018-01-12T11:30:42.243Z,4.42
2018-01-12T11:31:42.276Z,4.43
2018-01-12T11:32:42.252Z,4.43
2018-01-12T11:33:42.290Z,4.45
2018-01-12T11:34:42.254Z,4.46
2018-01-12T11:35:43.328Z,4.48
2018-01-12T11:36:42.269Z,4.49
2018-01-12T11:37:42.318Z,4.53
2018-01-12T11:38:42.273Z,4.53
2018-01-12T11:39:43.355Z,4.54
2018-01-12T11:40:42.277Z,4.56
2018-01-12T11:41:42.285Z,4.57
2018-01-12T11:42:42.351Z,4.60
2018-01-12T11:43:42.295Z,4.61
2018-01-12T11:44:42.361Z,4.61
2018-01-12T11:45:42.300Z,4.61
2018-01-12T11:46:42.305Z,4.64
2018-01-12T11:47:42.310Z,4.64
2018-01-12T11:48:42.307Z,4.66
2018-01-12T11:49:42.397Z,4.66
2018-01-12T11:50:42.321Z,4.67
2018-01-12T11:51:42.410Z,4.67
2018-01-12T11:52:42.318Z,4.66
2018-01-12T11:53:43.346Z,4.69
2018-01-12T11:54:42.328Z,4.69
2018-01-12T11:55:42.443Z,4.69
2018-01-12T11:56:42.334Z,4.69
2018-01-12T11:57:43.377Z,4.67
2018-01-12T11:58:42.341Z,4.67
2018-01-12T11:59:42.363Z,4.71
2018-01-12T12:00:42.352Z,4.71
2018-01-12T12:01:42.378Z,4.69
2018-01-12T12:02:42.351Z,4.71
2018-01-12T12:03:42.405Z,4.71
2018-01-12T12:04:42.366Z,4.74
2018-01-12T12:05:42.404Z,4.75
2018-01-12T12:06:42.370Z,4.77
2018-01-12T12:07:42.478Z,4.78
2018-01-12T12:08:42.381Z,4.79
2018-01-12T12:09:42.394Z,4.79
2018-01-12T12:10:42.378Z,4.83
2018-01-12T12:11:42.404Z,4.83
2018-01-12T12:12:42.389Z,4.85
2018-01-12T12:13:42.432Z,4.85
2018-01-12T12:14:42.393Z,4.86
2018-01-12T12:15:42.433Z,4.86
2018-01-12T12:16:42.406Z,4.86
2018-01-12T12:17:43.478Z,4.86
2018-01-12T12:18:42.406Z,4.88
2018-01-12T12:19:42.462Z,4.88
2018-01-12T12:20:42.420Z,4.89
2018-01-12T12:21:43.508Z,4.91
2018-01-12T12:22:42.430Z,4.94
2018-01-12T12:23:42.486Z,4.93
2018-01-12T12:24:42.436Z,4.94
2018-01-12T12:25:42.506Z,4.96
2018-01-12T12:26:42.436Z,4.94
2018-01-12T12:27:42.513Z,4.96
2018-01-12T12:28:42.440Z,4.97
2018-01-12T12:29:42.530Z,4.97
2018-01-12T12:30:42.454Z,4.96
2018-01-12T12:31:44.486Z,4.94
2018-01-12T12:32:42.465Z,4.94
2018-01-12T12:33:42.557Z,4.96
2018-01-12T12:34:42.462Z,4.94
2018-01-12T12:35:42.571Z,4.94
2018-01-12T12:36:42.473Z,4.93
2018-01-12T12:37:42.593Z,4.94
2018-01-12T12:38:42.508Z,4.93
2018-01-12T12:39:43.518Z,4.93
2018-01-12T12:40:42.483Z,4.93
2018-01-12T12:41:42.510Z,4.93
2018-01-12T12:42:42.495Z,4.91
2018-01-12T12:43:42.522Z,4.91
2018-01-12T12:44:42.505Z,4.89
2018-01-12T12:45:44.598Z,4.91
2018-01-12T12:46:42.505Z,4.89
2018-01-12T12:47:42.589Z,4.91
2018-01-12T12:48:42.517Z,4.91
2018-01-12T12:49:43.659Z,4.91
2018-01-12T12:50:42.519Z,4.93
2018-01-12T12:51:43.584Z,4.93
2018-01-12T12:52:42.531Z,4.91
2018-01-12T12:53:43.604Z,4.91
2018-01-12T12:54:42.534Z,4.89
2018-01-12T12:55:42.589Z,4.89
2018-01-12T12:56:42.570Z,4.89
2018-01-12T12:57:44.687Z,4.88
2018-01-12T12:58:42.554Z,4.91
2018-01-12T12:59:47.530Z,4.91
2018-01-12T13:00:42.560Z,4.91
2018-01-12T13:01:44.601Z,4.93
2018-01-12T13:02:42.570Z,4.93
2018-01-12T13:03:44.597Z,4.93
2018-01-12T13:04:42.569Z,4.94
2018-01-12T13:05:42.657Z,4.94
2018-01-12T13:06:42.585Z,4.94
2018-01-12T13:07:43.639Z,4.94
2018-01-12T13:08:42.584Z,4.93
2018-01-12T13:09:53.537Z,4.93
2018-01-12T13:10:42.592Z,4.93
2018-01-12T13:11:43.616Z,4.91
2018-01-12T13:12:42.592Z,4.91
2018-01-12T13:14:06.503Z,4.93
2018-01-12T13:14:42.603Z,4.93
2018-01-12T13:15:42.606Z,4.91
2018-01-12T13:16:58.505Z,4.91
2018-01-12T13:17:42.613Z,4.93
2018-01-12T13:18:44.692Z,4.94